Time;durP1;ratioP1;P1;durP2;ratioP2;P2;SDS_P1;SDS_P2;PMS_P1;PMS_P2;Temp;Humidity;BMP_temperature;BMP_pressure;BME280_temperature;BME280_humidity;BME280_pressure;Samples;Min_cycle;Max_cycle;Signal;HPM_P1;HPM_P2
2021/04/27 00:00:58;;;;;;;56.28;50.25;;;24.30;51.90;;;;;;5069257;28;20044;-60
2021/04/27 00:03:24;;;;;;;56.03;49.88;;;24.30;51.90;;;;;;5054476;28;20032;-60
2021/04/27 00:05:51;;;;;;;55.50;49.22;;;24.30;51.90;;;;;;5071966;28;20035;-60
2021/04/27 00:08:17;;;;;;;52.75;46.88;;;24.30;51.90;;;;;;5054873;28;20718;-60
2021/04/27 00:10:44;;;;;;;49.30;44.08;;;24.30;51.90;;;;;;5054381;28;20040;-60
2021/04/27 00:13:10;;;;;;;47.15;42.20;;;24.30;51.90;;;;;;5071558;28;20032;-61
2021/04/27 00:15:36;;;;;;;48.40;42.10;;;24.30;52.50;;;;;;5056690;28;20037;-60
2021/04/27 00:18:02;;;;;;;45.08;40.08;;;24.30;52.50;;;;;;5057071;28;20409;-60
2021/04/27 00:20:28;;;;;;;44.83;38.05;;;24.30;51.90;;;;;;5068598;28;20108;-60
2021/04/27 00:22:55;;;;;;;43.30;36.50;;;24.30;52.00;;;;;;5052509;28;20098;-60
2021/04/27 00:25:22;;;;;;;37.78;32.80;;;24.30;52.00;;;;;;5034639;28;20063;-60
2021/04/27 00:27:50;;;;;;;35.75;31.90;;;24.30;52.00;;;;;;5055876;28;20052;-61
2021/04/27 00:30:18;;;;;;;39.15;33.45;;;24.30;52.00;;;;;;5070734;28;20108;-60
2021/04/27 00:32:44;;;;;;;38.72;32.03;;;24.30;52.00;;;;;;5072016;28;20033;-61
2021/04/27 00:35:11;;;;;;;33.88;30.27;;;24.30;52.00;;;;;;5054620;28;20055;-60
2021/04/27 00:37:38;;;;;;;29.88;26.75;;;24.30;52.00;;;;;;5059829;28;20144;-60
2021/04/27 00:40:06;;;;;;;30.55;27.25;;;24.30;52.00;;;;;;5052379;28;20069;-60
2021/04/27 00:42:35;;;;;;;30.20;27.00;;;24.30;52.10;;;;;;5030353;28;20041;-60
2021/04/27 00:45:01;;;;;;;30.85;25.00;;;24.30;52.10;;;;;;5031667;28;20046;-60
2021/04/27 00:47:27;;;;;;;27.20;24.30;;;24.30;52.10;;;;;;5026730;28;20600;-61
2021/04/27 00:49:55;;;;;;;28.58;24.05;;;24.20;52.10;;;;;;5012978;28;20487;-60
2021/04/27 00:52:23;;;;;;;25.80;22.38;;;24.20;52.10;;;;;;5033922;28;20036;-61
2021/04/27 00:54:51;;;;;;;27.38;21.38;;;24.30;52.20;;;;;;5055523;28;20041;-61
2021/04/27 00:57:19;;;;;;;22.98;20.08;;;24.30;52.20;;;;;;5053559;28;20110;-60
2021/04/27 00:59:45;;;;;;;22.50;19.73;;;24.20;52.10;;;;;;5052167;28;20044;-60
2021/04/27 01:02:11;;;;;;;22.70;20.25;;;24.20;52.10;;;;;;5053754;28;20063;-61
2021/04/27 01:04:37;;;;;;;21.33;19.08;;;24.20;52.10;;;;;;5054493;28;20530;-61
2021/04/27 01:07:03;;;;;;;21.30;18.38;;;24.30;52.20;;;;;;5072049;28;20052;-60
2021/04/27 01:09:46;;;;;;;19.75;17.23;;;24.30;52.30;;;;;;5067870;28;20443;-60
2021/04/27 01:12:40;;;;;;;20.30;16.77;;;24.20;52.40;;;;;;5047750;28;20037;-60
2021/04/27 01:15:18;;;;;;;20.10;16.15;;;24.20;52.40;;;;;;5033978;28;20040;-60
2021/04/27 01:17:45;;;;;;;18.83;15.60;;;24.20;52.40;;;;;;5033887;28;20401;-60
2021/04/27 01:20:37;;;;;;;16.70;14.90;;;24.20;52.30;;;;;;5052098;28;20051;-60
2021/04/27 01:23:18;;;;;;;18.38;14.43;;;24.20;52.40;;;;;;5033737;28;20037;-60
2021/04/27 01:25:55;;;;;;;15.95;13.98;;;24.10;52.40;;;;;;5051832;28;20100;-60
2021/04/27 01:28:24;;;;;;;18.60;14.15;;;24.20;52.50;;;;;;5014170;28;20030;-60
2021/04/27 01:30:51;;;;;;;15.93;13.65;;;24.20;52.40;;;;;;5014207;28;20491;-60
2021/04/27 01:33:21;;;;;;;16.23;13.02;;;24.20;52.50;;;;;;5027258;28;20037;-60
2021/04/27 01:35:47;;;;;;;17.27;12.57;;;24.20;52.50;;;;;;5070231;28;20072;-60
2021/04/27 01:38:16;;;;;;;14.10;12.18;;;24.20;52.50;;;;;;5050424;28;20136;-60
2021/04/27 01:40:42;;;;;;;15.13;11.90;;;24.20;52.50;;;;;;5054038;28;20079;-60
2021/04/27 01:43:09;;;;;;;13.38;11.18;;;24.20;53.10;;;;;;5070582;28;20075;-61
2021/04/27 01:45:37;;;;;;;12.80;10.48;;;24.20;52.50;;;;;;5052147;28;20041;-60
2021/04/27 01:48:05;;;;;;;15.55;10.05;;;24.20;52.60;;;;;;5052849;28;20040;-60
2021/04/27 01:50:34;;;;;;;14.10;10.05;;;24.20;52.60;;;;;;5053198;28;20135;-60
2021/04/27 01:53:20;;;;;;;11.50;9.25;;;24.20;52.60;;;;;;5042422;28;20044;-60
2021/04/27 01:55:48;;;;;;;13.95;10.07;;;24.20;52.60;;;;;;5047569;28;20044;-60
2021/04/27 01:58:15;;;;;;;12.02;9.05;;;24.20;52.60;;;;;;5073283;28;20036;-60
2021/04/27 02:00:41;;;;;;;10.38;9.13;;;24.20;52.60;;;;;;5055203;28;20039;-60
2021/04/27 02:03:08;;;;;;;9.85;8.02;;;24.20;52.60;;;;;;5056811;28;20529;-60
2021/04/27 02:05:38;;;;;;;10.13;8.23;;;24.20;52.60;;;;;;5075328;28;20543;-60
2021/04/27 02:08:19;;;;;;;9.82;8.27;;;24.20;52.60;;;;;;5056632;28;20371;-60
2021/04/27 02:10:48;;;;;;;12.07;7.88;;;24.20;52.60;;;;;;5039074;28;20092;-62
2021/04/27 02:13:17;;;;;;;10.05;8.13;;;24.20;52.60;;;;;;5059797;28;20798;-62
2021/04/27 02:15:51;;;;;;;11.38;8.00;;;24.20;52.60;;;;;;5073273;28;20048;-62
2021/04/27 02:18:38;;;;;;;14.73;7.22;;;24.10;52.50;;;;;;5073257;28;20044;-62
2021/04/27 02:21:12;;;;;;;11.48;6.70;;;24.20;52.60;;;;;;5057047;28;20102;-62
2021/04/27 02:23:56;;;;;;;10.27;6.63;;;24.20;52.60;;;;;;5074572;28;20055;-61
2021/04/27 02:26:27;;;;;;;;;;;24.20;52.50;;;;;;5057205;28;20036;-61
2021/04/27 02:29:06;;;;;;;10.50;6.93;;;24.20;52.50;;;;;;5056942;28;19908;-62
2021/04/27 02:31:32;;;;;;;12.73;6.88;;;24.20;52.40;;;;;;5075030;28;20422;-62
2021/04/27 02:34:01;;;;;;;9.30;6.78;;;24.20;52.40;;;;;;5073027;28;20036;-62
2021/04/27 02:36:28;;;;;;;9.30;6.05;;;24.20;52.50;;;;;;5072015;28;20052;-62
2021/04/27 02:39:17;;;;;;;7.45;5.22;;;24.20;52.50;;;;;;5073666;28;20115;-61
2021/04/27 02:41:43;;;;;;;7.78;6.00;;;24.20;52.60;;;;;;5074365;28;20025;-61
2021/04/27 02:44:28;;;;;;;9.88;5.95;;;24.20;52.60;;;;;;5073364;28;20094;-62
2021/04/27 02:46:55;;;;;;;9.48;5.18;;;24.20;52.60;;;;;;5067117;28;20075;-61
2021/04/27 02:49:21;;;;;;;5.55;4.63;;;24.20;52.60;;;;;;5035946;28;20064;-62
2021/04/27 02:51:56;;;;;;;9.73;5.15;;;24.20;52.90;;;;;;5055951;28;20119;-62
2021/04/27 02:54:24;;;;;;;9.07;5.00;;;24.20;52.70;;;;;;5055048;28;20044;-62
2021/04/27 02:56:50;;;;;;;6.25;4.47;;;24.10;52.60;;;;;;5055013;28;20044;-62
2021/04/27 02:59:21;;;;;;;8.75;5.07;;;24.10;52.70;;;;;;5054895;28;20036;-62
2021/04/27 03:01:48;;;;;;;8.30;5.05;;;24.20;52.70;;;;;;5037715;28;20041;-62
2021/04/27 03:04:16;;;;;;;7.82;5.10;;;24.10;52.70;;;;;;5066459;28;20051;-63
2021/04/27 03:07:06;;;;;;;;;;;24.10;52.70;;;;;;5051542;28;20557;-62
2021/04/27 03:09:35;;;;;;;6.90;4.60;;;24.20;52.70;;;;;;5051345;28;20349;-63
2021/04/27 03:12:03;;;;;;;7.10;4.30;;;24.20;52.60;;;;;;5054133;28;20063;-62
2021/04/27 03:14:31;;;;;;;7.85;4.03;;;24.20;52.70;;;;;;5054698;28;20044;-62
2021/04/27 03:16:57;;;;;;;8.68;4.13;;;24.20;52.70;;;;;;5069862;28;20505;-63
2021/04/27 03:19:23;;;;;;;9.18;4.20;;;24.10;52.70;;;;;;5071486;28;20147;-62
2021/04/27 03:22:05;;;;;;;7.03;3.78;;;24.10;52.80;;;;;;5071103;28;20040;-63
2021/04/27 03:24:31;;;;;;;8.90;4.50;;;24.20;52.90;;;;;;5072280;28;20078;-62
2021/04/27 03:26:57;;;;;;;5.47;4.25;;;24.20;52.90;;;;;;5054455;28;20051;-63
2021/04/27 03:29:47;;;;;;;5.68;4.18;;;24.20;52.90;;;;;;5071117;28;20399;-62
2021/04/27 03:32:16;;;;;;;7.38;4.35;;;24.10;52.90;;;;;;5069624;28;20031;-62
2021/04/27 03:34:42;;;;;;;6.57;3.88;;;24.20;52.90;;;;;;5054362;28;20111;-62
2021/04/27 03:37:10;;;;;;;8.43;4.00;;;24.20;53.00;;;;;;5070818;28;20106;-62
2021/04/27 03:39:36;;;;;;;6.53;4.10;;;24.10;53.00;;;;;;5038808;28;20040;-63
2021/04/27 03:42:04;;;;;;;11.40;4.47;;;24.20;53.00;;;;;;5051845;28;20098;-62
2021/04/27 03:44:31;;;;;;;8.00;4.50;;;24.10;53.00;;;;;;5034857;28;20182;-62
2021/04/27 03:46:58;;;;;;;7.28;4.20;;;24.10;53.00;;;;;;5053678;28;20119;-62
2021/04/27 03:49:24;;;;;;;8.30;4.43;;;24.10;53.10;;;;;;5070270;28;20036;-63
2021/04/27 03:51:50;;;;;;;7.03;4.03;;;24.10;53.10;;;;;;5053869;28;20032;-63
2021/04/27 03:54:18;;;;;;;7.40;3.63;;;24.10;53.10;;;;;;5054123;28;20517;-62
2021/04/27 03:56:44;;;;;;;6.10;3.63;;;24.10;53.10;;;;;;5053281;28;20032;-62
2021/04/27 03:59:12;;;;;;;4.32;3.55;;;24.10;53.10;;;;;;5069980;28;20508;-62
2021/04/27 04:01:39;;;;;;;5.82;3.10;;;24.10;53.10;;;;;;5033130;28;20145;-63
2021/04/27 04:04:05;;;;;;;4.60;3.05;;;24.10;53.20;;;;;;5052078;28;20041;-62
2021/04/27 04:06:32;;;;;;;4.55;3.22;;;24.10;53.20;;;;;;5053047;28;20037;-62
2021/04/27 04:09:07;;;;;;;6.00;3.03;;;24.10;53.20;;;;;;5053049;28;20037;-62
2021/04/27 04:11:54;;;;;;;6.78;3.33;;;24.10;53.30;;;;;;5050268;28;20056;-62
2021/04/27 04:14:21;;;;;;;5.38;3.17;;;24.10;53.20;;;;;;5072749;28;20051;-62
2021/04/27 04:17:05;;;;;;;4.97;3.10;;;24.10;53.20;;;;;;5072379;28;20089;-62
2021/04/27 04:19:33;;;;;;;6.85;3.08;;;24.10;53.30;;;;;;5054463;28;20042;-62
2021/04/27 04:22:03;;;;;;;5.40;3.00;;;24.10;53.30;;;;;;5044071;28;20123;-62
2021/04/27 04:24:33;;;;;;;3.28;2.50;;;24.10;53.30;;;;;;5034294;28;20037;-62
2021/04/27 04:26:59;;;;;;;4.50;2.90;;;24.10;53.30;;;;;;5042734;28;20105;-62
2021/04/27 04:29:48;;;;;;;6.60;3.25;;;24.10;53.30;;;;;;5071506;28;20508;-62
2021/04/27 04:32:34;;;;;;;4.55;2.85;;;24.10;53.30;;;;;;5010494;28;20113;-61
2021/04/27 04:35:22;;;;;;;8.18;3.58;;;24.10;53.30;;;;;;5011241;28;20060;-62
2021/04/27 04:38:07;;;;;;;9.55;3.38;;;24.10;53.40;;;;;;5060494;28;20056;-62
2021/04/27 04:40:53;;;;;;;8.80;2.90;;;24.10;53.40;;;;;;5014984;28;20039;-62
2021/04/27 04:43:38;;;;;;;7.63;3.08;;;24.10;53.50;;;;;;5051008;28;20111;-62
2021/04/27 04:46:33;;;;;;;3.53;2.38;;;24.00;53.50;;;;;;5032846;28;20057;-62
2021/04/27 04:49:18;;;;;;;4.90;2.78;;;24.10;53.50;;;;;;5049724;28;20117;-62
2021/04/27 04:52:10;;;;;;;7.32;2.97;;;24.10;53.60;;;;;;5035670;28;20045;-62
2021/04/27 04:54:49;;;;;;;5.30;2.70;;;24.10;53.70;;;;;;5047543;28;20037;-62
2021/04/27 04:57:38;;;;;;;9.07;2.90;;;24.10;53.70;;;;;;4970870;28;20501;-62
2021/04/27 05:00:08;;;;;;;10.10;3.28;;;24.00;53.80;;;;;;4971208;28;20126;-62
2021/04/27 05:02:54;;;;;;;11.27;2.93;;;24.00;54.00;;;;;;4971285;28;20042;-62
2021/04/27 05:05:59;;;;;;;6.70;2.75;;;24.10;54.10;;;;;;4947354;29;20289;-60
2021/04/27 05:08:53;;;;;;;6.82;3.08;;;24.00;54.10;;;;;;4912347;29;20036;-60
2021/04/27 05:11:38;;;;;;;6.43;2.65;;;24.10;54.20;;;;;;4927073;29;20046;-60
2021/04/27 05:14:36;;;;;;;4.50;2.55;;;24.00;54.30;;;;;;4899497;29;20044;-60
2021/04/27 05:17:05;;;;;;;7.18;2.53;;;24.00;54.40;;;;;;4917249;29;20048;-60
2021/04/27 05:19:32;;;;;;;7.57;3.28;;;24.00;54.50;;;;;;4943764;28;20537;-60
2021/04/27 05:22:00;;;;;;;6.53;3.30;;;24.00;54.40;;;;;;4948485;29;20201;-60
2021/04/27 05:24:27;;;;;;;6.32;2.30;;;24.00;54.70;;;;;;4948342;29;20047;-60
2021/04/27 05:26:58;;;;;;;8.70;2.42;;;24.00;54.80;;;;;;4948549;29;20051;-60
2021/04/27 05:29:24;;;;;;;13.13;3.65;;;24.00;54.90;;;;;;4951861;28;20067;-60
2021/04/27 05:31:52;;;;;;;8.05;2.90;;;24.00;55.00;;;;;;4950783;29;20083;-60
2021/04/27 05:34:19;;;;;;;9.50;2.70;;;24.00;55.40;;;;;;4964506;28;20058;-60
2021/04/27 05:36:46;;;;;;;8.50;3.28;;;24.00;55.60;;;;;;5018341;28;20095;-60
2021/04/27 05:39:12;;;;;;;9.25;2.70;;;24.00;55.70;;;;;;5034129;28;20044;-61
2021/04/27 05:41:39;;;;;;;9.68;3.15;;;23.90;55.70;;;;;;5049379;28;20505;-61
2021/04/27 05:44:06;;;;;;;7.60;2.67;;;23.90;55.90;;;;;;5053080;28;20132;-61
2021/04/27 05:46:32;;;;;;;9.60;3.22;;;23.90;56.00;;;;;;5055357;28;20336;-60
2021/04/27 05:48:58;;;;;;;8.35;3.08;;;23.90;56.10;;;;;;5054106;28;20484;-60
2021/04/27 05:51:24;;;;;;;4.93;2.28;;;23.90;56.20;;;;;;5037569;28;20033;-61
2021/04/27 05:53:50;;;;;;;7.32;2.70;;;23.80;56.00;;;;;;5055339;28;20037;-61
2021/04/27 05:56:16;;;;;;;8.40;2.28;;;23.90;56.10;;;;;;5054249;28;20036;-61
2021/04/27 05:58:44;;;;;;;4.97;2.17;;;23.80;56.10;;;;;;5055008;28;20036;-61
2021/04/27 06:01:12;;;;;;;9.27;2.88;;;23.80;56.20;;;;;;5054791;28;20120;-61
2021/04/27 06:03:38;;;;;;;10.57;2.97;;;23.80;56.30;;;;;;5056678;28;20475;-60
2021/04/27 06:06:04;;;;;;;8.82;3.17;;;23.80;56.50;;;;;;5032098;28;20049;-60
2021/04/27 06:08:31;;;;;;;8.73;2.72;;;23.70;56.60;;;;;;5055541;28;20041;-61
2021/04/27 06:10:57;;;;;;;9.02;2.65;;;23.80;56.60;;;;;;5036132;28;20475;-60
2021/04/27 06:13:23;;;;;;;5.55;2.30;;;23.70;56.60;;;;;;5036151;28;20033;-60
2021/04/27 06:15:49;;;;;;;10.13;3.28;;;23.70;56.70;;;;;;5069034;28;20043;-60
2021/04/27 06:18:15;;;;;;;5.80;2.28;;;23.70;56.60;;;;;;5052329;28;20124;-60
2021/04/27 06:20:41;;;;;;;6.95;2.40;;;23.70;56.60;;;;;;5052171;28;20044;-60
2021/04/27 06:23:07;;;;;;;8.45;2.78;;;23.80;56.70;;;;;;5053371;28;20041;-60
2021/04/27 06:25:33;;;;;;;8.50;2.75;;;23.70;56.60;;;;;;5052314;28;20504;-60
2021/04/27 06:27:59;;;;;;;7.43;2.42;;;23.70;56.70;;;;;;5053460;28;20398;-59
2021/04/27 06:30:25;;;;;;;8.77;2.67;;;23.70;56.80;;;;;;5053007;28;20033;-59
2021/04/27 06:32:54;;;;;;;6.47;3.20;;;23.70;56.70;;;;;;5068246;28;20040;-60
2021/04/27 06:35:25;;;;;;;13.13;4.18;;;23.70;56.70;;;;;;5058956;28;20040;-60
2021/04/27 06:37:51;;;;;;;7.95;3.53;;;23.70;57.10;;;;;;5058327;28;20563;-60
2021/04/27 06:40:17;;;;;;;6.70;3.65;;;23.70;57.20;;;;;;5079415;28;20553;-59
2021/04/27 06:42:43;;;;;;;11.50;4.05;;;23.70;57.10;;;;;;5081994;28;20040;-60
2021/04/27 06:45:10;;;;;;;8.68;3.25;;;23.70;57.50;;;;;;5075025;28;20028;-60
2021/04/27 06:47:37;;;;;;;12.68;4.05;;;23.70;57.30;;;;;;5055376;28;20543;-59
2021/04/27 06:50:05;;;;;;;5.55;2.80;;;23.70;57.30;;;;;;5055537;28;20033;-60
2021/04/27 06:52:31;;;;;;;10.88;3.75;;;23.70;57.50;;;;;;5079023;28;20055;-60
2021/04/27 06:54:57;;;;;;;10.07;3.05;;;23.60;57.40;;;;;;5081668;28;20039;-60
2021/04/27 06:57:23;;;;;;;8.18;3.47;;;23.60;57.40;;;;;;5080805;28;20044;-61
2021/04/27 06:59:49;;;;;;;5.82;2.50;;;23.60;57.40;;;;;;5079774;28;20044;-60
2021/04/27 07:02:15;;;;;;;7.47;3.35;;;23.60;57.50;;;;;;5079062;28;20064;-60
2021/04/27 07:04:42;;;;;;;10.80;3.97;;;23.50;57.50;;;;;;5061833;28;20036;-60
2021/04/27 07:07:08;;;;;;;6.60;3.65;;;23.60;57.80;;;;;;5077891;28;20059;-60
2021/04/27 07:09:36;;;;;;;8.07;3.50;;;23.50;57.80;;;;;;5078983;28;20471;-59
2021/04/27 07:12:02;;;;;;;9.82;3.30;;;23.50;57.80;;;;;;5076574;28;20442;-60
2021/04/27 07:14:29;;;;;;;8.40;3.67;;;23.50;57.80;;;;;;5074778;28;20024;-59
2021/04/27 07:16:55;;;;;;;13.10;3.95;;;23.50;58.10;;;;;;5072570;28;20050;-59
2021/04/27 07:19:22;;;;;;;9.85;3.17;;;23.50;58.10;;;;;;5054327;28;20063;-59
2021/04/27 07:21:48;;;;;;;8.35;3.13;;;23.50;58.00;;;;;;5071736;28;20060;-59
2021/04/27 07:24:14;;;;;;;7.22;3.50;;;23.50;58.10;;;;;;5071172;28;20151;-59
2021/04/27 07:26:41;;;;;;;10.65;3.58;;;23.40;58.10;;;;;;5070993;28;20518;-59
2021/04/27 07:29:09;;;;;;;8.50;3.50;;;23.50;58.30;;;;;;5071068;28;20101;-59
2021/04/27 07:31:36;;;;;;;4.38;2.72;;;23.50;58.40;;;;;;5071088;28;20036;-60
2021/04/27 07:34:02;;;;;;;9.70;3.30;;;23.40;58.40;;;;;;5071043;28;20032;-59
2021/04/27 07:36:28;;;;;;;7.10;3.28;;;23.50;58.40;;;;;;5070743;28;20530;-59
2021/04/27 07:38:54;;;;;;;7.80;2.95;;;23.40;58.30;;;;;;5053085;28;20124;-59
2021/04/27 07:41:21;;;;;;;8.60;3.17;;;23.40;58.30;;;;;;5052884;28;20068;-59
2021/04/27 07:43:47;;;;;;;11.73;3.33;;;23.40;58.30;;;;;;5070395;28;20044;-59
2021/04/27 07:46:13;;;;;;;7.53;2.83;;;23.40;58.30;;;;;;5070368;28;20040;-59
2021/04/27 07:48:39;;;;;;;6.53;2.67;;;23.40;58.30;;;;;;5070052;28;20024;-59
2021/04/27 07:51:05;;;;;;;7.00;2.30;;;23.40;58.40;;;;;;5069648;28;20497;-59
2021/04/27 07:53:31;;;;;;;8.98;2.40;;;23.30;58.20;;;;;;5070047;28;20055;-60
2021/04/27 07:55:57;;;;;;;5.82;2.53;;;23.30;58.20;;;;;;5070050;28;20040;-60
2021/04/27 07:58:23;;;;;;;6.38;1.90;;;23.30;58.20;;;;;;5034956;28;20068;-59
2021/04/27 08:00:49;;;;;;;5.57;1.58;;;23.30;58.20;;;;;;5052017;28;20052;-60
2021/04/27 08:03:16;;;;;;;4.25;1.25;;;23.30;58.00;;;;;;5069847;28;20043;-60
2021/04/27 08:05:42;;;;;;;6.30;1.98;;;23.30;57.90;;;;;;5069781;28;20049;-59
2021/04/27 08:08:08;;;;;;;4.85;1.52;;;23.20;57.80;;;;;;5052154;28;20047;-60
2021/04/27 08:10:35;;;;;;;4.35;0.93;;;23.20;57.70;;;;;;5070934;28;20627;-59
2021/04/27 08:13:01;;;;;;;2.80;1.10;;;23.20;57.80;;;;;;5035267;28;20052;-59
2021/04/27 08:15:29;;;;;;;2.50;1.17;;;23.20;57.70;;;;;;5052115;28;20040;-60
2021/04/27 08:17:59;;;;;;;3.35;1.17;;;23.20;57.80;;;;;;5069290;28;20048;-60
2021/04/27 08:20:25;;;;;;;3.75;0.90;;;23.10;57.70;;;;;;5035641;28;20036;-60
2021/04/27 08:22:51;;;;;;;2.15;0.90;;;23.20;57.70;;;;;;5035822;28;20101;-62
2021/04/27 08:25:18;;;;;;;4.40;1.10;;;23.20;57.70;;;;;;5070410;28;20063;-66
2021/04/27 08:27:46;;;;;;;4.47;0.63;;;23.20;57.80;;;;;;5070703;28;20036;-67
2021/04/27 08:30:13;;;;;;;3.42;1.83;;;23.20;57.90;;;;;;5068374;28;20127;-68
2021/04/27 08:32:40;;;;;;;3.83;1.70;;;23.10;57.90;;;;;;5051146;28;20032;-66
2021/04/27 08:35:07;;;;;;;4.45;2.45;;;23.10;58.00;;;;;;5069421;28;20101;-66
2021/04/27 08:37:33;;;;;;;9.40;8.13;;;23.10;58.00;;;;;;5069962;28;20064;-65
2021/04/27 08:39:59;;;;;;;15.13;13.23;;;23.10;58.00;;;;;;5069336;28;20659;-65
2021/04/27 08:42:26;;;;;;;18.98;17.08;;;23.10;58.10;;;;;;5070355;28;20221;-65
2021/04/27 08:44:52;;;;;;;15.90;14.40;;;23.10;58.20;;;;;;5070585;28;20036;-62
2021/04/27 08:47:22;;;;;;;8.65;7.35;;;23.10;58.10;;;;;;5069076;28;20127;-59
2021/04/27 08:49:49;;;;;;;11.80;10.52;;;23.10;58.20;;;;;;5070532;28;20044;-60
2021/04/27 08:52:15;;;;;;;5.75;4.13;;;23.10;58.40;;;;;;5070637;28;20128;-62
2021/04/27 08:54:41;;;;;;;3.90;2.60;;;23.00;58.50;;;;;;5071269;28;20571;-69
2021/04/27 08:57:08;;;;;;;2.58;1.75;;;23.00;58.70;;;;;;5052367;28;20059;-68
2021/04/27 08:59:34;;;;;;;8.02;2.33;;;22.90;58.80;;;;;;5071080;28;20052;-68
2021/04/27 09:02:00;;;;;;;5.70;1.80;;;22.80;59.30;;;;;;5052962;28;20033;-70
2021/04/27 09:04:46;;;;;;;4.13;2.15;;;22.70;59.40;;;;;;5069433;28;20561;-62
2021/04/27 09:07:17;;;;;;;5.53;2.08;;;22.60;59.60;;;;;;5052348;28;20036;-66
2021/04/27 09:09:45;;;;;;;7.60;2.50;;;22.60;59.80;;;;;;5052691;28;20079;-68
2021/04/27 09:12:12;;;;;;;7.82;2.50;;;22.60;59.70;;;;;;5053060;28;20366;-76
2021/04/27 09:14:41;;;;;;;5.70;2.05;;;22.70;59.80;;;;;;5035982;28;20171;-60
2021/04/27 09:17:11;;;;;;;7.40;2.45;;;22.70;59.80;;;;;;5070195;28;20067;-63
2021/04/27 09:19:53;;;;;;;3.80;2.00;;;22.80;59.90;;;;;;5070291;28;20449;-63
2021/04/27 09:22:31;;;;;;;5.65;2.50;;;22.80;59.80;;;;;;5052665;28;20036;-61
2021/04/27 09:25:02;;;;;;;4.60;2.17;;;22.90;59.80;;;;;;5052213;28;20052;-67
2021/04/27 09:27:54;;;;;;;4.10;2.40;;;23.00;59.60;;;;;;5069848;28;20041;-62
2021/04/27 09:30:27;;;;;;;6.88;2.47;;;23.00;59.50;;;;;;5068344;28;20036;-67
2021/04/27 09:32:59;;;;;;;7.72;2.03;;;23.10;59.50;;;;;;5052090;28;20447;-64
2021/04/27 09:35:45;;;;;;;5.90;1.95;;;23.10;59.40;;;;;;5070117;28;20474;-62
2021/04/27 09:38:20;;;;;;;6.55;2.40;;;23.20;59.40;;;;;;5068599;28;20421;-62
2021/04/27 09:40:53;;;;;;;8.32;2.17;;;23.30;59.20;;;;;;5051790;28;20036;-62
2021/04/27 09:43:37;;;;;;;3.92;2.47;;;23.30;59.10;;;;;;5070440;28;20059;-64
2021/04/27 09:46:13;;;;;;;4.72;2.85;;;23.40;59.10;;;;;;5069965;28;20036;-63
2021/04/27 09:48:46;;;;;;;5.90;2.53;;;23.40;59.00;;;;;;5068144;28;20036;-61
2021/04/27 09:51:12;;;;;;;6.25;2.67;;;23.50;58.80;;;;;;5070117;28;20036;-64
2021/04/27 09:53:50;;;;;;;5.93;2.75;;;23.50;58.60;;;;;;5052012;28;20044;-67
2021/04/27 09:56:42;;;;;;;5.57;2.20;;;23.50;58.60;;;;;;5070992;28;20049;-63
2021/04/27 09:59:14;;;;;;;7.15;2.42;;;23.50;58.60;;;;;;5069239;28;20068;-59
2021/04/27 10:01:45;;;;;;;4.95;2.20;;;23.60;58.50;;;;;;5069666;28;20032;-61
2021/04/27 10:04:11;;;;;;;3.10;2.05;;;23.60;58.50;;;;;;5051310;28;20402;-62
2021/04/27 10:06:41;;;;;;;7.38;2.90;;;23.70;58.40;;;;;;5069564;28;20033;-62
2021/04/27 10:09:08;;;;;;;6.13;3.00;;;23.80;58.40;;;;;;5069351;28;20102;-62
2021/04/27 10:11:35;;;;;;;6.82;2.97;;;23.80;58.20;;;;;;5068379;28;20040;-62
2021/04/27 10:14:03;;;;;;;6.82;3.55;;;23.80;58.10;;;;;;5040752;28;20049;-62
2021/04/27 10:16:30;;;;;;;6.43;3.75;;;23.90;57.90;;;;;;5034854;28;20028;-61
2021/04/27 10:18:57;;;;;;;7.45;3.35;;;23.90;57.70;;;;;;5053068;28;20568;-61
2021/04/27 10:21:23;;;;;;;6.50;3.40;;;24.00;57.60;;;;;;5062380;28;20507;-62
2021/04/27 10:23:56;;;;;;;4.32;2.67;;;24.00;57.50;;;;;;5035124;28;20037;-61
2021/04/27 10:26:23;;;;;;;5.65;3.08;;;24.00;57.50;;;;;;5035405;28;20060;-61
2021/04/27 10:29:00;;;;;;;5.30;2.47;;;24.00;57.40;;;;;;5035106;28;20044;-61
2021/04/27 10:31:28;;;;;;;4.88;2.75;;;24.00;57.20;;;;;;5053031;28;20042;-61
2021/04/27 10:34:10;;;;;;;4.90;2.53;;;24.00;57.20;;;;;;5052970;28;20036;-61
2021/04/27 10:36:59;;;;;;;8.43;2.92;;;24.00;57.70;;;;;;5052501;28;20360;-60
2021/04/27 10:39:37;;;;;;;7.05;2.80;;;24.00;57.60;;;;;;5050925;28;20037;-60
2021/04/27 10:42:31;;;;;;;6.45;2.30;;;24.00;57.40;;;;;;5052691;28;20037;-61
2021/04/27 10:45:06;;;;;;;5.28;2.58;;;24.00;57.50;;;;;;5017904;28;20048;-61
2021/04/27 10:47:44;;;;;;;5.07;2.97;;;24.00;57.30;;;;;;5050689;28;20499;-61
2021/04/27 10:50:29;;;;;;;4.07;2.63;;;24.00;57.30;;;;;;5034130;28;20033;-59
2021/04/27 10:53:15;;;;;;;8.02;3.65;;;24.00;57.30;;;;;;5053591;28;20430;-59
2021/04/27 10:55:52;;;;;;;5.80;2.42;;;24.00;57.20;;;;;;5045811;28;20101;-60
2021/04/27 10:58:47;;;;;;;7.20;3.25;;;24.00;57.20;;;;;;5051848;28;20403;-60
2021/04/27 11:01:21;;;;;;;4.10;2.25;;;24.00;57.10;;;;;;5052444;28;20041;-60
2021/04/27 11:03:52;;;;;;;4.88;2.72;;;24.00;56.90;;;;;;5053597;28;20055;-60
2021/04/27 11:06:18;;;;;;;5.80;2.60;;;24.00;56.90;;;;;;5054015;28;20075;-60
2021/04/27 11:08:50;;;;;;;6.85;2.47;;;24.00;57.00;;;;;;5054180;28;20755;-60
2021/04/27 11:11:25;;;;;;;5.40;2.55;;;24.00;57.70;;;;;;5071643;28;20032;-60
2021/04/27 11:13:54;;;;;;;6.72;2.92;;;24.00;57.00;;;;;;5071846;28;20037;-61
2021/04/27 11:16:29;;;;;;;3.67;2.30;;;24.00;57.00;;;;;;5071370;28;20385;-66
2021/04/27 11:19:20;;;;;;;6.72;2.88;;;24.00;57.10;;;;;;5053534;28;20479;-64
2021/04/27 11:21:48;;;;;;;6.00;3.58;;;24.00;57.10;;;;;;5063933;28;20060;-64
2021/04/27 11:24:35;;;;;;;6.55;3.28;;;24.00;57.10;;;;;;5068659;28;20170;-65
2021/04/27 11:27:02;;;;;;;7.70;3.47;;;24.00;57.20;;;;;;5064887;28;20039;-63
2021/04/27 11:29:31;;;;;;;5.32;3.10;;;24.00;57.10;;;;;;5053138;28;20392;-64
2021/04/27 11:32:07;;;;;;;7.10;3.42;;;24.00;57.20;;;;;;5071550;28;20549;-63
2021/04/27 11:35:11;;;;;;;6.65;3.50;;;24.00;57.30;;;;;;5071479;28;20040;-64
2021/04/27 11:38:00;;;;;;;6.65;3.40;;;24.00;57.30;;;;;;5091444;28;20381;-63
2021/04/27 11:40:28;;;;;;;11.68;3.67;;;24.10;57.30;;;;;;5056595;28;20111;-64
2021/04/27 11:42:59;;;;;;;7.50;3.97;;;24.10;57.20;;;;;;5073144;28;20035;-63
2021/04/27 11:45:30;;;;;;;10.43;6.32;;;24.10;57.30;;;;;;5090945;28;20040;-63
2021/04/27 11:47:57;;;;;;;15.55;13.05;;;24.10;57.30;;;;;;5091725;28;20867;-64
2021/04/27 11:50:29;;;;;;;22.65;20.30;;;24.10;57.40;;;;;;5090003;28;20032;-64
2021/04/27 11:53:02;;;;;;;26.08;23.33;;;24.10;57.50;;;;;;5072909;28;20395;-64
2021/04/27 11:55:28;;;;;;;28.67;25.67;;;24.10;57.70;;;;;;5069594;28;20036;-64
2021/04/27 11:58:05;;;;;;;31.50;28.10;;;24.20;57.80;;;;;;5091079;28;20040;-64
2021/04/27 12:00:57;;;;;;;31.27;26.73;;;24.20;58.10;;;;;;5072521;28;20040;-64
2021/04/27 12:03:38;;;;;;;16.98;13.75;;;24.30;58.20;;;;;;5091130;28;20538;-63
2021/04/27 12:06:07;;;;;;;17.38;13.10;;;24.30;57.80;;;;;;5072394;28;20558;-63
2021/04/27 12:08:38;;;;;;;16.65;14.55;;;24.30;57.70;;;;;;5089669;28;20032;-61
2021/04/27 12:11:06;;;;;;;17.00;12.00;;;24.30;57.50;;;;;;5090908;28;20032;-61
2021/04/27 12:13:33;;;;;;;13.07;11.13;;;24.40;57.40;;;;;;5056076;28;20034;-61
2021/04/27 12:16:09;;;;;;;15.07;11.02;;;24.40;57.30;;;;;;5073196;28;20035;-61
2021/04/27 12:18:48;;;;;;;18.38;10.35;;;24.40;57.40;;;;;;5072457;28;20436;-62
2021/04/27 12:21:48;;;;;;;13.80;10.95;;;24.40;57.40;;;;;;5089563;28;20462;-61
2021/04/27 12:24:21;;;;;;;13.00;10.27;;;24.40;57.40;;;;;;5061282;28;20051;-62
2021/04/27 12:26:58;;;;;;;13.30;9.23;;;24.50;57.40;;;;;;5072494;28;20434;-62
2021/04/27 12:29:59;;;;;;;12.27;9.00;;;24.50;57.40;;;;;;5089322;28;20032;-62
2021/04/27 12:32:26;;;;;;;;;;;24.50;57.50;;;;;;5085046;28;20069;-61
2021/04/27 12:34:56;;;;;;;11.73;8.77;;;24.50;57.50;;;;;;5087860;28;19915;-61
2021/04/27 12:37:29;;;;;;;;;;;24.60;57.20;;;;;;5068109;28;20144;-61
2021/04/27 12:40:15;;;;;;;14.73;9.25;;;24.60;57.40;;;;;;5070329;28;19915;-61
2021/04/27 12:43:14;;;;;;;16.75;9.07;;;24.60;57.20;;;;;;5085605;28;20040;-61
2021/04/27 12:45:47;;;;;;;13.50;9.13;;;24.60;57.50;;;;;;5031541;28;20045;-60
2021/04/27 12:48:17;;;;;;;13.40;9.18;;;24.70;57.60;;;;;;5048560;28;20098;-61
2021/04/27 12:50:59;;;;;;;13.07;8.07;;;24.70;57.50;;;;;;5031639;28;20048;-61
2021/04/27 12:53:34;;;;;;;13.60;8.07;;;24.70;57.60;;;;;;5048529;28;20041;-61
2021/04/27 12:56:14;;;;;;;14.23;9.10;;;24.70;57.40;;;;;;5048236;28;20044;-60
2021/04/27 12:58:40;;;;;;;15.50;7.90;;;24.70;57.60;;;;;;5031645;28;20044;-61
2021/04/27 13:01:08;;;;;;;14.38;8.05;;;24.80;57.50;;;;;;5031372;28;20051;-61
2021/04/27 13:03:46;;;;;;;18.25;8.90;;;24.80;57.60;;;;;;5048130;28;20049;-61
2021/04/27 13:06:32;;;;;;;19.10;8.15;;;24.90;57.70;;;;;;5024868;28;20103;-60